Flight Track Log - Related Links

Times and Time Zones

All times are in EDT time to prevent confusion due to time zone crossing. See the KAL1917 flight status page for this flight to view local times or setup timezone preferences in your user account.

Time Position Orientation Groundspeed Altitude Reporting Facility
EDT Latitude Longitude Course Direction KTS MPH feet Rate Location/Type
Tue 01:23:00 AM 35.2498 126.5816 182° South  Level Estimated
Tue 01:24:00 AM 35.1408 126.5759 182° South  Level Estimated
Tue 01:25:00 AM 35.0318 126.5703 182° South  Level Estimated
Tue 01:26:00 AM 34.9228 126.5647 182° South  Level Estimated
Tue 01:27:00 AM 34.8139 126.5590 182° South  Level Estimated
Tue 01:28:00 AM 34.7049 126.5534 182° South  Level Estimated
Tue 01:29:00 AM 34.5959 126.5479 182° South  Level Estimated
Tue 01:30:00 AM 34.4869 126.5423 182° South  Level Estimated
Tue 01:31:00 AM 34.3779 126.5367 182° South  Level Estimated
Tue 01:32:00 AM 34.2689 126.5312 182° South  Level Estimated
Tue 01:33:00 AM 34.1599 126.5257 182° South  Level Estimated
Tue 01:34:00 AM 34.0509 126.5201 182° South  Level Estimated
Tue 01:35:00 AM 33.9760 126.5163 182° South  Level Estimated
Tue 01:36:00 AM 33.9011 126.5126 182° South  Level Estimated
Tue 01:37:00 AM 33.8261 126.5088 182° South  Level Estimated
Tue 01:38:00 AM 33.7512 126.5050 182° South  Level Estimated
Tue 01:39:00 AM 33.6763 126.5013 182° South  Level Estimated
Tue 01:40:00 AM 33.6013 126.4975 182° South  Level Estimated
Tue 01:41:00 AM 33.5264 126.4938 182° South  Level Estimated
Tue 01:42:00 AM 33.5113 126.4930 182° South  Level Estimated
Tue 01:43:00 AM 33.5113 126.4930 203° Southwest  Level Estimated
Tue 01:44:00 AM 33.5113 126.4930 203° Southwest  Level Estimated
Tue 01:45:00 AM 33.5113 126.4930 203° Southwest  Level Estimated
Tue 01:46:00 AM 33.5113 126.4930 203° Southwest  Level Estimated
Tue 01:47:00 AM 33.5113 126.4930 203° Southwest  Level Estimated
Tue 01:48:00 AM 33.5113 126.4930 203° Southwest  Level Estimated
Tue 01:49:00 AM 33.5113 126.4930 203° Southwest  Level Estimated
Tue 01:50:00 AM 33.5113 126.4930 203° Southwest  Level Estimated

Login

Don't have an account? Register now (free) for customized features, flight alerts, and more!